Terminal Aerodrome Forecast
Issued by NWS

Home | Current Version | Previous Version | Text Only | Print | Product List | Glossary On
Versions: 1 2 3 4 5 6 7 8 9 10 11 12 13 14 15 16 17 18 19
000
FTUS42 KMLB 191725
TAFSFB
TAF
KSFB 191725Z 1918/2018 01011KT P6SM FEW022
     FM200100 06004KT P6SM SKC
     FM200900 VRB03KT 4SM BR FEW008
     FM201300 01006KT P6SM FEW025
     FM201500 05008KT P6SM FEW035=

USA.gov is the U.S. government's official web portal to all federal, state and local government web resources and services.